sensor_id;sensor_type;location;lat;lon;timestamp;pressure;altitude;pressure_sealevel;temperature;humidity
15267;BME280;7735;49.144;8.668;2023-04-12T00:00:00;99672.03;;;13.25;48.35
15267;BME280;7735;49.144;8.668;2023-04-12T00:02:29;99680.78;;;13.23;48.64
15267;BME280;7735;49.144;8.668;2023-04-12T00:04:59;99677.38;;;13.21;48.96
15267;BME280;7735;49.144;8.668;2023-04-12T00:07:27;99679.13;;;13.20;49.42
15267;BME280;7735;49.144;8.668;2023-04-12T00:09:54;99670.50;;;13.15;49.16
15267;BME280;7735;49.144;8.668;2023-04-12T00:12:21;99665.47;;;13.09;49.83
15267;BME280;7735;49.144;8.668;2023-04-12T00:14:47;99660.28;;;13.08;50.65
15267;BME280;7735;49.144;8.668;2023-04-12T00:17:14;99664.66;;;13.05;50.79
15267;BME280;7735;49.144;8.668;2023-04-12T00:19:42;99663.00;;;13.03;51.21
15267;BME280;7735;49.144;8.668;2023-04-12T00:22:10;99653.47;;;13.00;51.51
15267;BME280;7735;49.144;8.668;2023-04-12T00:24:38;99653.53;;;12.99;51.91
15267;BME280;7735;49.144;8.668;2023-04-12T00:27:04;99644.91;;;12.95;51.98
15267;BME280;7735;49.144;8.668;2023-04-12T00:29:31;99644.91;;;12.95;52.20
15267;BME280;7735;49.144;8.668;2023-04-12T00:31:58;99638.84;;;12.93;52.91
15267;BME280;7735;49.144;8.668;2023-04-12T00:34:25;99637.19;;;12.91;52.61
15267;BME280;7735;49.144;8.668;2023-04-12T00:36:53;99638.09;;;12.88;53.37
15267;BME280;7735;49.144;8.668;2023-04-12T00:39:20;99632.97;;;12.85;53.15
15267;BME280;7735;49.144;8.668;2023-04-12T00:41:47;99626.88;;;12.85;53.48
15267;BME280;7735;49.144;8.668;2023-04-12T00:44:14;99625.09;;;12.87;53.87
15267;BME280;7735;49.144;8.668;2023-04-12T00:46:42;99623.38;;;12.86;54.11
15267;BME280;7735;49.144;8.668;2023-04-12T00:49:09;99620.81;;;12.84;54.04
15267;BME280;7735;49.144;8.668;2023-04-12T00:51:36;99613.88;;;12.83;54.52
15267;BME280;7735;49.144;8.668;2023-04-12T00:54:05;99619.09;;;12.83;54.56
15267;BME280;7735;49.144;8.668;2023-04-12T00:56:32;99608.66;;;12.83;54.92
15267;BME280;7735;49.144;8.668;2023-04-12T00:58:59;99613.81;;;12.85;54.93
15267;BME280;7735;49.144;8.668;2023-04-12T01:01:26;99606.06;;;12.82;55.23
15267;BME280;7735;49.144;8.668;2023-04-12T01:03:53;99605.25;;;12.80;55.35
15267;BME280;7735;49.144;8.668;2023-04-12T01:06:35;99604.44;;;12.77;55.83
15267;BME280;7735;49.144;8.668;2023-04-12T01:09:18;99594.88;;;12.76;56.23
15267;BME280;7735;49.144;8.668;2023-04-12T01:11:52;99594.13;;;12.73;56.41
15267;BME280;7735;49.144;8.668;2023-04-12T01:14:27;99589.81;;;12.70;56.70
15267;BME280;7735;49.144;8.668;2023-04-12T01:16:56;99580.25;;;12.69;56.80
15267;BME280;7735;49.144;8.668;2023-04-12T01:19:40;99582.00;;;12.69;57.37
15267;BME280;7735;49.144;8.668;2023-04-12T01:22:16;99572.44;;;12.69;57.57
15267;BME280;7735;49.144;8.668;2023-04-12T01:25:03;99565.50;;;12.68;57.99
15267;BME280;7735;49.144;8.668;2023-04-12T01:27:44;99553.25;;;12.70;58.89
15267;BME280;7735;49.144;8.668;2023-04-12T01:30:14;99551.47;;;12.72;59.13
15267;BME280;7735;49.144;8.668;2023-04-12T01:32:44;99549.56;;;12.77;59.01
15267;BME280;7735;49.144;8.668;2023-04-12T01:35:12;99546.88;;;12.81;59.04
15267;BME280;7735;49.144;8.668;2023-04-12T01:37:41;99538.16;;;12.82;59.28
15267;BME280;7735;49.144;8.668;2023-04-12T01:40:10;99535.50;;;12.83;59.58
15267;BME280;7735;49.144;8.668;2023-04-12T01:42:38;99537.13;;;12.87;59.78
15267;BME280;7735;49.144;8.668;2023-04-12T01:45:06;99526.63;;;12.89;59.45
15267;BME280;7735;49.144;8.668;2023-04-12T01:47:33;99525.75;;;12.90;59.98
15267;BME280;7735;49.144;8.668;2023-04-12T01:50:10;99520.50;;;12.91;60.02
15267;BME280;7735;49.144;8.668;2023-04-12T01:52:53;99513.50;;;12.92;59.98
15267;BME280;7735;49.144;8.668;2023-04-12T01:55:23;99510.09;;;12.90;59.93
15267;BME280;7735;49.144;8.668;2023-04-12T01:57:52;99503.09;;;12.90;59.91
15267;BME280;7735;49.144;8.668;2023-04-12T02:00:19;99497.84;;;12.92;60.02
15267;BME280;7735;49.144;8.668;2023-04-12T02:02:46;99497.03;;;12.88;59.99
15267;BME280;7735;49.144;8.668;2023-04-12T02:05:13;99491.09;;;12.83;60.46
15267;BME280;7735;49.144;8.668;2023-04-12T02:07:40;99489.41;;;12.81;60.28
15267;BME280;7735;49.144;8.668;2023-04-12T02:10:12;99483.38;;;12.79;60.89
15267;BME280;7735;49.144;8.668;2023-04-12T02:12:39;99473.94;;;12.74;60.66
15267;BME280;7735;49.144;8.668;2023-04-12T02:15:07;99472.22;;;12.73;61.04
15267;BME280;7735;49.144;8.668;2023-04-12T02:17:34;99473.88;;;12.76;61.37
15267;BME280;7735;49.144;8.668;2023-04-12T02:20:01;99466.91;;;12.76;60.95
15267;BME280;7735;49.144;8.668;2023-04-12T02:22:31;99453.84;;;12.76;61.08
15267;BME280;7735;49.144;8.668;2023-04-12T02:24:57;99459.03;;;12.78;61.03
15267;BME280;7735;49.144;8.668;2023-04-12T02:27:25;99453.75;;;12.80;61.50
15267;BME280;7735;49.144;8.668;2023-04-12T02:29:52;99447.63;;;12.81;61.28
15267;BME280;7735;49.144;8.668;2023-04-12T02:32:20;99444.22;;;12.79;61.05
15267;BME280;7735;49.144;8.668;2023-04-12T02:34:46;99449.44;;;12.79;61.67
15267;BME280;7735;49.144;8.668;2023-04-12T02:37:15;99437.28;;;12.77;61.54
15267;BME280;7735;49.144;8.668;2023-04-12T02:39:42;99432.16;;;12.74;61.67
15267;BME280;7735;49.144;8.668;2023-04-12T02:42:08;99438.22;;;12.75;61.70
15267;BME280;7735;49.144;8.668;2023-04-12T02:44:35;99431.25;;;12.75;61.47
15267;BME280;7735;49.144;8.668;2023-04-12T02:47:02;99422.56;;;12.75;61.64
15267;BME280;7735;49.144;8.668;2023-04-12T02:49:30;99414.78;;;12.73;61.88
15267;BME280;7735;49.144;8.668;2023-04-12T02:51:56;99412.16;;;12.73;61.94
15267;BME280;7735;49.144;8.668;2023-04-12T02:54:23;99405.19;;;12.74;62.04
15267;BME280;7735;49.144;8.668;2023-04-12T02:56:49;99399.91;;;12.75;61.57
15267;BME280;7735;49.144;8.668;2023-04-12T02:59:16;99402.53;;;12.75;61.86
15267;BME280;7735;49.144;8.668;2023-04-12T03:01:42;99386.91;;;12.74;61.76
15267;BME280;7735;49.144;8.668;2023-04-12T03:04:10;99386.03;;;12.73;61.67
15267;BME280;7735;49.144;8.668;2023-04-12T03:06:38;99379.91;;;12.74;61.88
15267;BME280;7735;49.144;8.668;2023-04-12T03:09:16;99378.22;;;12.73;61.98
15267;BME280;7735;49.144;8.668;2023-04-12T03:11:43;99374.75;;;12.73;61.94
15267;BME280;7735;49.144;8.668;2023-04-12T03:14:10;99367.84;;;12.70;62.02
15267;BME280;7735;49.144;8.668;2023-04-12T03:16:37;99363.47;;;12.71;62.09
15267;BME280;7735;49.144;8.668;2023-04-12T03:19:03;99349.59;;;12.69;62.10
15267;BME280;7735;49.144;8.668;2023-04-12T03:21:30;99350.50;;;12.68;62.35
15267;BME280;7735;49.144;8.668;2023-04-12T03:23:58;99342.69;;;12.68;62.47
15267;BME280;7735;49.144;8.668;2023-04-12T03:26:26;99342.72;;;12.66;62.42
15267;BME280;7735;49.144;8.668;2023-04-12T03:28:57;99333.25;;;12.62;62.60
15267;BME280;7735;49.144;8.668;2023-04-12T03:31:24;99327.13;;;12.65;62.61
15267;BME280;7735;49.144;8.668;2023-04-12T03:33:51;99331.47;;;12.64;62.53
15267;BME280;7735;49.144;8.668;2023-04-12T03:36:18;99330.56;;;12.65;63.00
15267;BME280;7735;49.144;8.668;2023-04-12T03:38:45;99327.00;;;12.68;62.72
15267;BME280;7735;49.144;8.668;2023-04-12T03:41:14;99324.41;;;12.68;62.64
15267;BME280;7735;49.144;8.668;2023-04-12T03:43:41;99321.78;;;12.68;62.90
15267;BME280;7735;49.144;8.668;2023-04-12T03:46:07;99313.91;;;12.69;62.82
15267;BME280;7735;49.144;8.668;2023-04-12T03:48:34;99291.25;;;12.70;62.76
15267;BME280;7735;49.144;8.668;2023-04-12T03:51:02;99296.53;;;12.68;62.80
15267;BME280;7735;49.144;8.668;2023-04-12T03:53:31;99293.13;;;12.66;62.99
15267;BME280;7735;49.144;8.668;2023-04-12T03:55:58;99286.19;;;12.65;62.63
15267;BME280;7735;49.144;8.668;2023-04-12T03:58:26;99280.97;;;12.65;63.13
15267;BME280;7735;49.144;8.668;2023-04-12T04:00:52;99278.34;;;12.65;62.75
15267;BME280;7735;49.144;8.668;2023-04-12T04:03:19;99272.28;;;12.65;63.09
15267;BME280;7735;49.144;8.668;2023-04-12T04:05:51;99263.59;;;12.64;63.12
15267;BME280;7735;49.144;8.668;2023-04-12T04:08:17;99259.28;;;12.63;63.00
15267;BME280;7735;49.144;8.668;2023-04-12T04:10:44;99253.16;;;12.64;62.96
15267;BME280;7735;49.144;8.668;2023-04-12T04:13:11;99238.34;;;12.65;63.48
15267;BME280;7735;49.144;8.668;2023-04-12T04:15:39;99244.47;;;12.62;62.98
15267;BME280;7735;49.144;8.668;2023-04-12T04:18:05;99234.09;;;12.61;63.23
15267;BME280;7735;49.144;8.668;2023-04-12T04:20:32;99226.38;;;12.58;63.25
15267;BME280;7735;49.144;8.668;2023-04-12T04:22:59;99225.50;;;12.57;63.16
15267;BME280;7735;49.144;8.668;2023-04-12T04:25:25;99212.41;;;12.59;63.33
15267;BME280;7735;49.144;8.668;2023-04-12T04:27:54;99211.44;;;12.61;63.25
15267;BME280;7735;49.144;8.668;2023-04-12T04:30:20;99211.38;;;12.64;63.60
15267;BME280;7735;49.144;8.668;2023-04-12T04:32:48;99209.66;;;12.63;63.53
15267;BME280;7735;49.144;8.668;2023-04-12T04:35:15;99199.22;;;12.63;63.22
15267;BME280;7735;49.144;8.668;2023-04-12T04:37:42;99204.44;;;12.63;63.56
15267;BME280;7735;49.144;8.668;2023-04-12T04:40:09;99201.00;;;12.61;63.44
15267;BME280;7735;49.144;8.668;2023-04-12T04:42:36;99205.38;;;12.61;63.40
15267;BME280;7735;49.144;8.668;2023-04-12T04:45:05;99192.28;;;12.62;63.63
15267;BME280;7735;49.144;8.668;2023-04-12T04:47:39;99194.84;;;12.64;63.52
15267;BME280;7735;49.144;8.668;2023-04-12T04:50:07;99186.97;;;12.65;63.74
15267;BME280;7735;49.144;8.668;2023-04-12T04:52:34;99179.22;;;12.62;63.68
15267;BME280;7735;49.144;8.668;2023-04-12T04:55:02;99168.03;;;12.59;63.70
15267;BME280;7735;49.144;8.668;2023-04-12T04:57:28;99175.84;;;12.59;63.69
15267;BME280;7735;49.144;8.668;2023-04-12T04:59:55;99169.78;;;12.58;63.89
15267;BME280;7735;49.144;8.668;2023-04-12T05:02:21;99168.94;;;12.58;64.00
15267;BME280;7735;49.144;8.668;2023-04-12T05:04:48;99175.91;;;12.57;63.77
15267;BME280;7735;49.144;8.668;2023-04-12T05:07:16;99178.53;;;12.57;63.87
15267;BME280;7735;49.144;8.668;2023-04-12T05:09:51;99182.03;;;12.56;64.26
15267;BME280;7735;49.144;8.668;2023-04-12T05:12:18;99178.59;;;12.54;64.02
15267;BME280;7735;49.144;8.668;2023-04-12T05:14:45;99168.16;;;12.54;64.37
15267;BME280;7735;49.144;8.668;2023-04-12T05:17:11;99169.91;;;12.55;64.39
15267;BME280;7735;49.144;8.668;2023-04-12T05:19:38;99162.00;;;12.57;64.26
15267;BME280;7735;49.144;8.668;2023-04-12T05:22:05;99162.00;;;12.57;64.23
15267;BME280;7735;49.144;8.668;2023-04-12T05:24:33;99162.88;;;12.57;64.02
15267;BME280;7735;49.144;8.668;2023-04-12T05:27:00;99155.09;;;12.56;64.40
15267;BME280;7735;49.144;8.668;2023-04-12T05:29:27;99155.94;;;12.56;64.22
15267;BME280;7735;49.144;8.668;2023-04-12T05:31:53;99152.41;;;12.57;64.26
15267;BME280;7735;49.144;8.668;2023-04-12T05:34:20;99143.72;;;12.57;64.59
15267;BME280;7735;49.144;8.668;2023-04-12T05:36:46;99134.16;;;12.57;64.66
15267;BME280;7735;49.144;8.668;2023-04-12T05:39:13;99131.53;;;12.57;64.39
15267;BME280;7735;49.144;8.668;2023-04-12T05:41:41;99126.31;;;12.57;64.58
15267;BME280;7735;49.144;8.668;2023-04-12T05:44:07;99114.16;;;12.56;64.29
15267;BME280;7735;49.144;8.668;2023-04-12T05:46:34;99119.38;;;12.56;64.60
15267;BME280;7735;49.144;8.668;2023-04-12T05:49:01;99104.53;;;12.58;64.54
15267;BME280;7735;49.144;8.668;2023-04-12T05:51:27;99096.56;;;12.61;64.47
15267;BME280;7735;49.144;8.668;2023-04-12T05:53:55;99098.19;;;12.65;64.86
15267;BME280;7735;49.144;8.668;2023-04-12T05:56:22;99093.78;;;12.67;64.41
15267;BME280;7735;49.144;8.668;2023-04-12T05:58:49;99082.41;;;12.68;64.48
15267;BME280;7735;49.144;8.668;2023-04-12T06:01:16;99078.91;;;12.69;64.42
15267;BME280;7735;49.144;8.668;2023-04-12T06:03:43;99077.19;;;12.68;64.29
15267;BME280;7735;49.144;8.668;2023-04-12T06:06:10;99068.47;;;12.69;64.47
15267;BME280;7735;49.144;8.668;2023-04-12T06:08:37;99066.69;;;12.70;64.60
15267;BME280;7735;49.144;8.668;2023-04-12T06:11:04;99054.56;;;12.69;64.54
15267;BME280;7735;49.144;8.668;2023-04-12T06:13:30;99051.94;;;12.69;64.18
15267;BME280;7735;49.144;8.668;2023-04-12T06:15:58;99051.09;;;12.68;64.61
15267;BME280;7735;49.144;8.668;2023-04-12T06:18:25;99052.78;;;12.69;64.60
15267;BME280;7735;49.144;8.668;2023-04-12T06:20:52;99044.16;;;12.67;64.47
15267;BME280;7735;49.144;8.668;2023-04-12T06:23:18;99036.34;;;12.67;64.55
15267;BME280;7735;49.144;8.668;2023-04-12T06:25:46;99035.44;;;12.68;64.74
15267;BME280;7735;49.144;8.668;2023-04-12T06:28:13;99038.03;;;12.68;64.57
15267;BME280;7735;49.144;8.668;2023-04-12T06:30:39;99034.50;;;12.69;64.55
15267;BME280;7735;49.144;8.668;2023-04-12T06:33:07;99031.91;;;12.69;64.60
15267;BME280;7735;49.144;8.668;2023-04-12T06:35:34;99030.19;;;12.68;64.58
15267;BME280;7735;49.144;8.668;2023-04-12T06:38:00;99022.38;;;12.68;64.79
15267;BME280;7735;49.144;8.668;2023-04-12T06:40:27;99014.53;;;12.68;64.50
15267;BME280;7735;49.144;8.668;2023-04-12T06:42:54;99016.25;;;12.69;64.63
15267;BME280;7735;49.144;8.668;2023-04-12T06:45:21;99009.31;;;12.68;64.97
15267;BME280;7735;49.144;8.668;2023-04-12T06:47:48;99005.78;;;12.69;64.89
15267;BME280;7735;49.144;8.668;2023-04-12T06:50:16;98988.31;;;12.71;64.86
15267;BME280;7735;49.144;8.668;2023-04-12T06:52:43;98987.38;;;12.74;64.85
15267;BME280;7735;49.144;8.668;2023-04-12T06:55:12;98983.84;;;12.75;65.01
15267;BME280;7735;49.144;8.668;2023-04-12T06:57:40;98977.66;;;12.77;65.08
15267;BME280;7735;49.144;8.668;2023-04-12T07:00:08;98976.75;;;12.79;64.92
15267;BME280;7735;49.144;8.668;2023-04-12T07:02:34;98965.38;;;12.80;65.25
15267;BME280;7735;49.144;8.668;2023-04-12T07:05:01;98960.16;;;12.80;65.12
15267;BME280;7735;49.144;8.668;2023-04-12T07:07:30;98965.38;;;12.80;65.30
15267;BME280;7735;49.144;8.668;2023-04-12T07:09:56;98956.75;;;12.77;65.40
15267;BME280;7735;49.144;8.668;2023-04-12T07:12:24;98960.28;;;12.76;65.50
15267;BME280;7735;49.144;8.668;2023-04-12T07:14:51;98951.53;;;12.77;65.72
15267;BME280;7735;49.144;8.668;2023-04-12T07:17:17;98948.88;;;12.79;65.42
15267;BME280;7735;49.144;8.668;2023-04-12T07:19:45;98945.34;;;12.80;65.65
15267;BME280;7735;49.144;8.668;2023-04-12T07:22:13;98938.38;;;12.81;65.55
15267;BME280;7735;49.144;8.668;2023-04-12T07:24:41;98939.19;;;12.83;65.82
15267;BME280;7735;49.144;8.668;2023-04-12T07:27:08;98925.22;;;12.84;65.88
15267;BME280;7735;49.144;8.668;2023-04-12T07:29:35;98927.81;;;12.84;66.05
15267;BME280;7735;49.144;8.668;2023-04-12T07:32:02;98908.50;;;12.88;66.02
15267;BME280;7735;49.144;8.668;2023-04-12T07:34:29;98905.84;;;12.89;65.69
15267;BME280;7735;49.144;8.668;2023-04-12T07:36:56;98898.00;;;12.89;66.11
15267;BME280;7735;49.144;8.668;2023-04-12T07:39:25;98892.78;;;12.89;66.07
15267;BME280;7735;49.144;8.668;2023-04-12T07:41:55;98885.81;;;12.90;66.06
15267;BME280;7735;49.144;8.668;2023-04-12T07:44:21;98876.25;;;12.89;66.08
15267;BME280;7735;49.144;8.668;2023-04-12T07:46:48;98873.66;;;12.89;66.31
15267;BME280;7735;49.144;8.668;2023-04-12T07:49:14;98864.00;;;12.91;66.49
15267;BME280;7735;49.144;8.668;2023-04-12T07:51:41;98862.19;;;12.93;66.20
15267;BME280;7735;49.144;8.668;2023-04-12T07:54:08;98866.44;;;12.95;66.70
15267;BME280;7735;49.144;8.668;2023-04-12T07:56:34;98861.09;;;12.98;66.43
15267;BME280;7735;49.144;8.668;2023-04-12T07:59:03;98860.13;;;13.01;66.73
15267;BME280;7735;49.144;8.668;2023-04-12T08:01:30;98855.81;;;13.00;66.43
15267;BME280;7735;49.144;8.668;2023-04-12T08:03:56;98855.81;;;13.00;66.53
15267;BME280;7735;49.144;8.668;2023-04-12T08:06:23;98857.47;;;13.02;66.67
15267;BME280;7735;49.144;8.668;2023-04-12T08:08:51;98855.75;;;13.01;66.68
15267;BME280;7735;49.144;8.668;2023-04-12T08:11:17;98858.19;;;13.06;67.09
15267;BME280;7735;49.144;8.668;2023-04-12T08:13:44;98859.84;;;13.09;67.22
15267;BME280;7735;49.144;8.668;2023-04-12T08:16:12;98844.16;;;13.09;67.26
15267;BME280;7735;49.144;8.668;2023-04-12T08:18:38;98851.75;;;13.15;67.49
15267;BME280;7735;49.144;8.668;2023-04-12T08:21:05;98840.34;;;13.17;67.51
15267;BME280;7735;49.144;8.668;2023-04-12T08:23:32;98839.50;;;13.17;67.33
15267;BME280;7735;49.144;8.668;2023-04-12T08:25:58;98840.34;;;13.17;67.52
15267;BME280;7735;49.144;8.668;2023-04-12T08:28:27;98840.25;;;13.20;68.08
15267;BME280;7735;49.144;8.668;2023-04-12T08:30:55;98838.41;;;13.22;67.92
15267;BME280;7735;49.144;8.668;2023-04-12T08:33:23;98834.78;;;13.26;67.95
15267;BME280;7735;49.144;8.668;2023-04-12T08:35:50;98833.75;;;13.30;67.72
15267;BME280;7735;49.144;8.668;2023-04-12T08:38:17;98824.88;;;13.35;67.68
15267;BME280;7735;49.144;8.668;2023-04-12T08:40:43;98816.91;;;13.38;68.02
15267;BME280;7735;49.144;8.668;2023-04-12T08:43:11;98810.63;;;13.42;68.23
15267;BME280;7735;49.144;8.668;2023-04-12T08:45:38;98819.13;;;13.47;68.23
15267;BME280;7735;49.144;8.668;2023-04-12T08:48:05;98810.19;;;13.52;68.01
15267;BME280;7735;49.144;8.668;2023-04-12T08:50:33;98814.91;;;13.85;69.06
15267;BME280;7735;49.144;8.668;2023-04-12T08:52:59;98812.75;;;13.95;68.41
15267;BME280;7735;49.144;8.668;2023-04-12T08:55:26;98816.28;;;13.94;67.62
15267;BME280;7735;49.144;8.668;2023-04-12T08:57:53;98812.97;;;13.90;67.75
15267;BME280;7735;49.144;8.668;2023-04-12T09:00:21;98821.81;;;13.87;67.90
15267;BME280;7735;49.144;8.668;2023-04-12T09:02:48;98833.16;;;13.86;68.01
15267;BME280;7735;49.144;8.668;2023-04-12T09:05:15;98823.59;;;13.85;68.00
15267;BME280;7735;49.144;8.668;2023-04-12T09:07:42;98823.59;;;13.85;67.99
15267;BME280;7735;49.144;8.668;2023-04-12T09:10:29;98803.53;;;13.86;67.95
15267;BME280;7735;49.144;8.668;2023-04-12T09:12:56;98814.06;;;13.84;68.23
15267;BME280;7735;49.144;8.668;2023-04-12T09:15:23;98816.75;;;13.83;68.00
15267;BME280;7735;49.144;8.668;2023-04-12T09:18:01;98818.53;;;13.82;68.38
15267;BME280;7735;49.144;8.668;2023-04-12T09:20:28;98814.19;;;13.81;68.44
15267;BME280;7735;49.144;8.668;2023-04-12T09:22:57;98808.06;;;13.82;68.82
15267;BME280;7735;49.144;8.668;2023-04-12T09:25:36;98797.59;;;13.82;69.06
15267;BME280;7735;49.144;8.668;2023-04-12T09:28:04;98783.59;;;13.83;68.84
15267;BME280;7735;49.144;8.668;2023-04-12T09:30:43;98789.56;;;13.87;68.74
15267;BME280;7735;49.144;8.668;2023-04-12T09:33:10;98780.66;;;13.91;69.18
15267;BME280;7735;49.144;8.668;2023-04-12T09:35:36;98779.66;;;13.94;69.17
15267;BME280;7735;49.144;8.668;2023-04-12T09:38:07;98775.28;;;13.94;69.39
15267;BME280;7735;49.144;8.668;2023-04-12T09:40:34;98781.34;;;13.95;69.21
15267;BME280;7735;49.144;8.668;2023-04-12T09:43:02;98781.25;;;13.98;69.23
15267;BME280;7735;49.144;8.668;2023-04-12T09:45:32;98773.19;;;14.02;69.41
15267;BME280;7735;49.144;8.668;2023-04-12T09:47:59;98769.59;;;14.05;69.61
15267;BME280;7735;49.144;8.668;2023-04-12T09:50:27;98770.38;;;14.07;69.07
15267;BME280;7735;49.144;8.668;2023-04-12T09:53:03;98767.69;;;14.08;68.85
15267;BME280;7735;49.144;8.668;2023-04-12T09:55:42;98776.44;;;14.07;68.57
15267;BME280;7735;49.144;8.668;2023-04-12T09:58:10;98765.13;;;14.07;68.06
15267;BME280;7735;49.144;8.668;2023-04-12T10:00:37;98763.28;;;14.09;68.09
15267;BME280;7735;49.144;8.668;2023-04-12T10:03:04;98763.94;;;14.14;68.57
15267;BME280;7735;49.144;8.668;2023-04-12T10:05:31;98766.84;;;14.27;68.55
15267;BME280;7735;49.144;8.668;2023-04-12T10:07:59;98753.69;;;14.28;68.26
15267;BME280;7735;49.144;8.668;2023-04-12T10:10:26;98755.38;;;14.29;68.56
15267;BME280;7735;49.144;8.668;2023-04-12T10:12:54;98748.34;;;14.31;68.85
15267;BME280;7735;49.144;8.668;2023-04-12T10:15:22;98738.00;;;14.28;68.23
15267;BME280;7735;49.144;8.668;2023-04-12T10:17:51;98731.81;;;14.29;68.67
15267;BME280;7735;49.144;8.668;2023-04-12T10:20:19;98734.31;;;14.32;68.70
15267;BME280;7735;49.144;8.668;2023-04-12T10:22:47;98717.63;;;14.35;68.81
15267;BME280;7735;49.144;8.668;2023-04-12T10:25:17;98727.09;;;14.37;68.65
15267;BME280;7735;49.144;8.668;2023-04-12T10:27:44;98730.47;;;14.39;68.72
15267;BME280;7735;49.144;8.668;2023-04-12T10:30:24;98725.13;;;14.42;68.48
15267;BME280;7735;49.144;8.668;2023-04-12T10:33:10;98724.28;;;14.42;67.88
15267;BME280;7735;49.144;8.668;2023-04-12T10:35:57;98727.75;;;14.42;67.51
15267;BME280;7735;49.144;8.668;2023-04-12T10:38:25;98715.50;;;14.43;67.55
15267;BME280;7735;49.144;8.668;2023-04-12T10:41:15;98716.34;;;14.43;67.23
15267;BME280;7735;49.144;8.668;2023-04-12T10:43:42;98718.03;;;14.44;67.30
15267;BME280;7735;49.144;8.668;2023-04-12T10:46:47;98704.06;;;14.45;67.66
15267;BME280;7735;49.144;8.668;2023-04-12T10:49:15;98710.88;;;14.50;67.13
15267;BME280;7735;49.144;8.668;2023-04-12T10:52:12;98708.84;;;14.55;66.83
15267;BME280;7735;49.144;8.668;2023-04-12T10:54:42;98701.09;;;14.53;66.20
15267;BME280;7735;49.144;8.668;2023-04-12T10:57:40;98690.53;;;14.55;66.26
15267;BME280;7735;49.144;8.668;2023-04-12T11:00:09;98698.38;;;14.55;65.96
15267;BME280;7735;49.144;8.668;2023-04-12T11:03:02;98686.84;;;14.59;65.70
15267;BME280;7735;49.144;8.668;2023-04-12T11:05:30;98701.56;;;14.61;66.08
15267;BME280;7735;49.144;8.668;2023-04-12T11:07:59;98693.47;;;14.66;66.19
15267;BME280;7735;49.144;8.668;2023-04-12T11:10:26;98693.19;;;14.72;65.43
15267;BME280;7735;49.144;8.668;2023-04-12T11:12:54;98681.66;;;14.76;64.28
15267;BME280;7735;49.144;8.668;2023-04-12T11:15:25;98687.66;;;14.78;64.00
15267;BME280;7735;49.144;8.668;2023-04-12T11:17:55;98690.69;;;14.88;64.25
15267;BME280;7735;49.144;8.668;2023-04-12T11:20:25;98665.63;;;14.99;63.68
15267;BME280;7735;49.144;8.668;2023-04-12T11:22:52;98652.91;;;15.09;63.37
15267;BME280;7735;49.144;8.668;2023-04-12T11:25:20;98657.94;;;15.14;62.90
15267;BME280;7735;49.144;8.668;2023-04-12T11:27:50;98663.03;;;15.17;62.18
15267;BME280;7735;49.144;8.668;2023-04-12T11:30:16;98656.84;;;15.18;61.73
15267;BME280;7735;49.144;8.668;2023-04-12T11:32:44;98660.09;;;15.23;61.61
15267;BME280;7735;49.144;8.668;2023-04-12T11:35:13;98663.41;;;15.26;61.39
15267;BME280;7735;49.144;8.668;2023-04-12T11:37:40;98649.13;;;15.32;60.40
15267;BME280;7735;49.144;8.668;2023-04-12T11:40:08;98667.59;;;15.30;60.40
15267;BME280;7735;49.144;8.668;2023-04-12T11:42:35;98657.94;;;15.31;60.02
15267;BME280;7735;49.144;8.668;2023-04-12T11:45:05;98648.97;;;15.35;60.14
15267;BME280;7735;49.144;8.668;2023-04-12T11:47:32;98653.91;;;15.41;59.41
15267;BME280;7735;49.144;8.668;2023-04-12T11:50:00;98636.22;;;15.45;58.93
15267;BME280;7735;49.144;8.668;2023-04-12T11:52:32;98637.69;;;15.50;58.86
15267;BME280;7735;49.144;8.668;2023-04-12T11:55:00;98633.13;;;15.54;58.49
15267;BME280;7735;49.144;8.668;2023-04-12T11:57:32;98625.22;;;15.55;58.57
15267;BME280;7735;49.144;8.668;2023-04-12T12:00:06;98624.19;;;15.58;58.61
15267;BME280;7735;49.144;8.668;2023-04-12T12:02:36;98630.28;;;15.58;58.04
15267;BME280;7735;49.144;8.668;2023-04-12T12:05:05;98623.34;;;15.57;58.43
15267;BME280;7735;49.144;8.668;2023-04-12T12:07:33;98631.91;;;15.61;58.15
15267;BME280;7735;49.144;8.668;2023-04-12T12:10:01;98628.34;;;15.62;57.46
15267;BME280;7735;49.144;8.668;2023-04-12T12:12:29;98623.19;;;15.61;57.19
15267;BME280;7735;49.144;8.668;2023-04-12T12:14:58;98620.56;;;15.61;57.41
15267;BME280;7735;49.144;8.668;2023-04-12T12:17:26;98629.28;;;15.61;57.07
15267;BME280;7735;49.144;8.668;2023-04-12T12:19:58;98617.06;;;15.60;56.79
15267;BME280;7735;49.144;8.668;2023-04-12T12:22:44;98611.16;;;15.56;56.77
15267;BME280;7735;49.144;8.668;2023-04-12T12:25:11;98619.13;;;15.55;56.73
15267;BME280;7735;49.144;8.668;2023-04-12T12:27:47;98612.09;;;15.55;56.49
15267;BME280;7735;49.144;8.668;2023-04-12T12:30:21;98607.69;;;15.56;56.58
15267;BME280;7735;49.144;8.668;2023-04-12T12:32:51;98593.72;;;15.55;56.29
15267;BME280;7735;49.144;8.668;2023-04-12T12:35:18;98594.72;;;15.53;56.08
15267;BME280;7735;49.144;8.668;2023-04-12T12:37:56;98599.88;;;15.54;56.31
15267;BME280;7735;49.144;8.668;2023-04-12T12:40:28;98601.50;;;15.57;56.50
15267;BME280;7735;49.144;8.668;2023-04-12T12:43:17;98610.97;;;15.59;56.37
15267;BME280;7735;49.144;8.668;2023-04-12T12:45:44;98598.81;;;15.58;56.51
15267;BME280;7735;49.144;8.668;2023-04-12T12:48:11;98601.44;;;15.58;56.09
15267;BME280;7735;49.144;8.668;2023-04-12T12:50:43;98605.91;;;15.56;55.94
15267;BME280;7735;49.144;8.668;2023-04-12T12:53:12;98594.56;;;15.56;56.09
15267;BME280;7735;49.144;8.668;2023-04-12T12:55:39;98595.34;;;15.58;56.05
15267;BME280;7735;49.144;8.668;2023-04-12T12:58:08;98588.22;;;15.60;55.74
15267;BME280;7735;49.144;8.668;2023-04-12T13:00:35;98582.94;;;15.62;55.46
15267;BME280;7735;49.144;8.668;2023-04-12T13:03:07;98578.47;;;15.64;55.36
15267;BME280;7735;49.144;8.668;2023-04-12T13:05:52;98582.59;;;15.68;55.25
15267;BME280;7735;49.144;8.668;2023-04-12T13:11:09;98570.09;;;15.73;55.05
15267;BME280;7735;49.144;8.668;2023-04-12T13:13:36;98568.06;;;15.78;54.58
15267;BME280;7735;49.144;8.668;2023-04-12T13:16:05;98558.31;;;15.80;54.23
15267;BME280;7735;49.144;8.668;2023-04-12T13:18:51;98555.63;;;15.81;54.25
15267;BME280;7735;49.144;8.668;2023-04-12T13:21:20;98565.19;;;15.82;54.40